createdAt,value
2022-11-26T00:00:15.638Z,107.77
2022-11-26T00:02:43.842Z,111.63
2022-11-26T00:05:13.399Z,107.50
2022-11-26T00:07:41.918Z,112.10
2022-11-26T00:10:15.267Z,110.03
2022-11-26T00:12:43.472Z,107.43
2022-11-26T00:15:16.404Z,104.10
2022-11-26T00:17:44.502Z,106.27
2022-11-26T00:20:12.592Z,106.77
2022-11-26T00:22:42.399Z,106.20
2022-11-26T00:25:18.082Z,118.80
2022-11-26T00:27:46.173Z,125.00
2022-11-26T00:30:20.718Z,128.30
2022-11-26T00:32:48.902Z,121.27
2022-11-26T00:35:17.119Z,134.50
2022-11-26T00:37:47.394Z,107.37
2022-11-26T00:40:20.652Z,115.90
2022-11-26T00:42:48.720Z,106.03
2022-11-26T00:45:19.647Z,105.53
2022-11-26T00:47:47.714Z,96.73
2022-11-26T00:50:17.062Z,100.47
2022-11-26T00:52:45.215Z,99.47
2022-11-26T00:55:20.650Z,93.63
2022-11-26T00:57:48.706Z,91.70
2022-11-26T01:00:20.211Z,95.00
2022-11-26T01:02:48.369Z,95.07
2022-11-26T01:05:16.762Z,90.37
2022-11-26T01:07:45.291Z,84.50
2022-11-26T01:10:17.743Z,86.20
2022-11-26T01:12:46.017Z,88.07
2022-11-26T01:15:14.373Z,90.80
2022-11-26T01:17:43.861Z,86.53
2022-11-26T01:20:25.309Z,88.93
2022-11-26T01:22:54.111Z,87.10
2022-11-26T01:25:23.007Z,90.27
2022-11-26T01:27:51.081Z,87.30
2022-11-26T01:30:21.563Z,80.90
2022-11-26T01:32:51.057Z,85.07
2022-11-26T01:35:19.638Z,86.17
2022-11-26T01:37:47.987Z,79.80
2022-11-26T01:40:32.974Z,82.13
2022-11-26T01:43:02.051Z,83.93
2022-11-26T01:45:30.118Z,90.30
2022-11-26T01:47:59.673Z,85.33
2022-11-26T01:50:52.958Z,82.83
2022-11-26T01:53:27.408Z,88.17
2022-11-26T01:55:57.003Z,87.93
2022-11-26T01:58:27.507Z,92.97
2022-11-26T02:00:55.619Z,95.60
2022-11-26T02:03:25.276Z,99.57
2022-11-26T02:05:56.536Z,92.50
2022-11-26T02:08:25.700Z,92.53
2022-11-26T02:10:53.919Z,87.10
2022-11-26T02:13:22.066Z,91.23
2022-11-26T02:15:54.166Z,92.27
2022-11-26T02:18:22.260Z,88.67
2022-11-26T02:20:53.892Z,95.73
2022-11-26T02:24:05.328Z,89.90
2022-11-26T02:27:17.901Z,97.83
2022-11-26T02:30:02.027Z,85.37
2022-11-26T02:32:30.568Z,89.27
2022-11-26T02:35:01.186Z,89.50
2022-11-26T02:37:30.730Z,92.17
2022-11-26T02:39:58.930Z,89.23
2022-11-26T02:42:28.533Z,91.83
2022-11-26T02:44:59.028Z,80.20
2022-11-26T02:47:27.994Z,87.37
2022-11-26T02:49:56.097Z,85.37
2022-11-26T02:52:24.381Z,81.83
2022-11-26T02:54:52.469Z,81.97
2022-11-26T02:57:21.366Z,83.77
2022-11-26T02:59:49.398Z,86.13
2022-11-26T03:02:21.490Z,91.00
2022-11-26T03:04:51.346Z,98.80
2022-11-26T03:07:19.548Z,79.70
2022-11-26T03:09:51.605Z,84.43
2022-11-26T03:12:19.879Z,93.10
2022-11-26T03:14:47.904Z,83.33
2022-11-26T03:17:16.010Z,91.40
2022-11-26T03:19:45.461Z,85.33
2022-11-26T03:22:13.542Z,90.70
2022-11-26T03:24:41.629Z,88.47
2022-11-26T03:27:09.655Z,92.77
2022-11-26T03:29:37.811Z,95.57
2022-11-26T03:32:06.286Z,89.77
2022-11-26T03:34:34.561Z,98.97
2022-11-26T03:37:04.090Z,100.67
2022-11-26T03:39:32.164Z,88.10
2022-11-26T03:42:00.197Z,92.53
2022-11-26T03:44:28.311Z,98.57
2022-11-26T03:46:56.369Z,113.47
2022-11-26T03:49:24.666Z,116.67
2022-11-26T03:51:52.697Z,115.27
2022-11-26T03:54:22.106Z,98.73
2022-11-26T03:56:50.158Z,95.20
2022-11-26T03:59:18.303Z,93.97
2022-11-26T04:01:46.398Z,88.13
2022-11-26T04:04:14.543Z,92.47
2022-11-26T04:06:42.706Z,87.30
2022-11-26T04:09:10.825Z,83.10
2022-11-26T04:11:40.276Z,89.40
2022-11-26T04:14:08.326Z,89.97
2022-11-26T04:16:36.416Z,92.57
2022-11-26T04:19:04.586Z,93.97
2022-11-26T04:21:32.614Z,84.70
2022-11-26T04:24:00.658Z,89.17
2022-11-26T04:26:28.755Z,91.07
2022-11-26T04:28:58.250Z,83.57
2022-11-26T04:31:26.360Z,84.43
2022-11-26T04:33:54.532Z,80.67
2022-11-26T04:36:22.547Z,78.87
2022-11-26T04:38:50.666Z,88.83
2022-11-26T04:41:18.706Z,83.70
2022-11-26T04:43:46.833Z,83.03
2022-11-26T04:46:16.345Z,89.33
2022-11-26T04:48:44.484Z,83.53
2022-11-26T04:51:12.504Z,84.93
2022-11-26T04:53:40.574Z,77.67
2022-11-26T04:56:08.836Z,82.80
2022-11-26T04:58:36.999Z,78.27
2022-11-26T05:01:05.206Z,73.77
2022-11-26T05:03:36.309Z,82.07
2022-11-26T05:06:04.414Z,96.60
2022-11-26T05:08:32.469Z,88.00
2022-11-26T05:11:01.556Z,80.70
2022-11-26T05:13:29.688Z,86.23
2022-11-26T05:15:57.769Z,79.10
2022-11-26T05:18:26.551Z,87.33
2022-11-26T05:20:56.007Z,86.17
2022-11-26T05:23:24.176Z,86.97
2022-11-26T05:25:52.195Z,91.57
2022-11-26T05:28:20.252Z,96.77
2022-11-26T05:30:48.319Z,88.73
2022-11-26T05:33:16.484Z,92.40
2022-11-26T05:35:44.512Z,84.67
2022-11-26T05:38:13.946Z,86.53
2022-11-26T05:40:41.991Z,88.10
2022-11-26T05:43:10.121Z,87.80
2022-11-26T05:45:38.225Z,98.97
2022-11-26T05:48:06.895Z,95.33
2022-11-26T05:50:34.941Z,98.87
2022-11-26T05:53:02.980Z,99.93
2022-11-26T05:55:32.418Z,99.33
2022-11-26T05:58:00.557Z,105.23
2022-11-26T06:00:28.666Z,104.50
2022-11-26T06:02:56.828Z,105.53
2022-11-26T06:05:24.962Z,104.27
2022-11-26T06:07:53.163Z,102.70
2022-11-26T06:10:21.332Z,103.67
2022-11-26T06:12:50.792Z,115.80
2022-11-26T06:15:18.872Z,107.13
2022-11-26T06:17:46.936Z,105.70
2022-11-26T06:20:15.293Z,106.47
2022-11-26T06:22:44.305Z,107.83
2022-11-26T06:25:13.310Z,105.63
2022-11-26T06:27:41.435Z,106.17
2022-11-26T06:30:15.226Z,112.33
2022-11-26T06:32:43.366Z,103.70
2022-11-26T06:35:11.459Z,116.87
2022-11-26T06:37:39.521Z,121.90
2022-11-26T06:40:09.324Z,123.30
2022-11-26T06:42:37.439Z,122.67
2022-11-26T06:45:06.183Z,102.23
2022-11-26T06:47:35.729Z,105.17
2022-11-26T06:50:09.258Z,111.40
2022-11-26T06:52:38.829Z,105.77
2022-11-26T06:55:07.429Z,110.93
2022-11-26T06:57:35.617Z,99.40
2022-11-26T07:00:03.689Z,96.73
2022-11-26T07:02:31.941Z,111.03
2022-11-26T07:05:01.427Z,107.60
2022-11-26T07:07:29.549Z,108.23
2022-11-26T07:09:57.680Z,103.53
2022-11-26T07:12:25.826Z,106.83
2022-11-26T07:14:53.866Z,112.40
2022-11-26T07:17:22.052Z,105.97
2022-11-26T07:19:50.816Z,90.87
2022-11-26T07:22:20.335Z,88.60
2022-11-26T07:24:48.400Z,92.27
2022-11-26T07:27:16.510Z,83.87
2022-11-26T07:29:44.598Z,79.07
2022-11-26T07:32:12.645Z,83.73
2022-11-26T07:34:40.994Z,79.97
2022-11-26T07:37:09.149Z,76.97
2022-11-26T07:39:38.984Z,80.97
2022-11-26T07:42:07.142Z,83.90
2022-11-26T07:44:35.331Z,84.53
2022-11-26T07:47:04.457Z,82.07
2022-11-26T07:49:32.540Z,80.00
2022-11-26T07:52:00.644Z,75.27
2022-11-26T07:54:28.759Z,77.87
2022-11-26T07:56:58.173Z,76.90
2022-11-26T07:59:26.347Z,84.30
2022-11-26T08:01:54.463Z,76.50
2022-11-26T08:04:22.632Z,79.70
2022-11-26T08:06:50.704Z,86.67
2022-11-26T08:09:18.762Z,83.83
2022-11-26T08:11:47.185Z,88.47
2022-11-26T08:14:16.624Z,83.60
2022-11-26T08:16:44.822Z,84.83
2022-11-26T08:19:13.766Z,88.57
2022-11-26T08:21:41.925Z,82.10
2022-11-26T08:24:11.671Z,85.07
2022-11-26T08:26:43.918Z,85.87
2022-11-26T08:29:12.845Z,97.20
2022-11-26T08:31:45.511Z,110.13
2022-11-26T08:34:15.302Z,97.90
2022-11-26T08:36:43.437Z,97.60
2022-11-26T08:39:13.135Z,100.27
2022-11-26T08:41:41.233Z,100.10
2022-11-26T08:44:09.397Z,110.57
2022-11-26T08:46:37.967Z,103.87
2022-11-26T08:49:07.876Z,111.90
2022-11-26T08:51:35.941Z,88.13
2022-11-26T08:54:04.057Z,75.90
2022-11-26T08:56:32.274Z,88.00
2022-11-26T08:59:00.358Z,89.50
2022-11-26T09:01:29.476Z,84.67
2022-11-26T09:03:59.260Z,83.37
2022-11-26T09:06:30.130Z,94.93
2022-11-26T09:09:17.794Z,96.63
2022-11-26T09:11:48.031Z,101.37
2022-11-26T09:14:16.535Z,100.57
2022-11-26T09:16:44.677Z,90.23
2022-11-26T09:19:13.477Z,81.67
2022-11-26T09:21:43.023Z,81.10
2022-11-26T09:24:11.102Z,81.60
2022-11-26T09:26:39.158Z,81.67
2022-11-26T09:29:07.683Z,79.47
2022-11-26T09:31:35.772Z,72.63
2022-11-26T09:34:03.893Z,70.47
2022-11-26T09:36:32.341Z,73.37
2022-11-26T09:39:01.829Z,67.23
2022-11-26T09:41:39.891Z,66.93
2022-11-26T09:44:29.717Z,69.87
2022-11-26T09:47:14.180Z,67.67
2022-11-26T09:49:47.399Z,63.37
2022-11-26T09:52:15.610Z,62.53
2022-11-26T09:54:45.069Z,65.17
2022-11-26T09:57:19.640Z,66.13
2022-11-26T09:59:47.777Z,61.23
2022-11-26T10:02:15.964Z,61.33
2022-11-26T10:04:44.056Z,61.67
2022-11-26T10:07:22.214Z,64.53
2022-11-26T10:09:56.758Z,60.43
2022-11-26T10:12:32.975Z,61.50
2022-11-26T10:15:04.741Z,61.87
2022-11-26T10:17:41.151Z,62.07
2022-11-26T10:20:42.091Z,60.57
2022-11-26T10:23:16.895Z,65.40
2022-11-26T10:25:47.775Z,68.03
2022-11-26T10:28:20.506Z,59.37
2022-11-26T10:30:51.621Z,67.83
2022-11-26T10:33:19.805Z,62.07
2022-11-26T10:35:47.841Z,57.60
2022-11-26T10:38:16.026Z,59.73
2022-11-26T10:40:44.146Z,54.50
2022-11-26T10:43:18.558Z,57.93
2022-11-26T10:45:47.943Z,59.00
2022-11-26T10:48:17.936Z,59.57
2022-11-26T10:50:55.395Z,57.23
2022-11-26T10:53:23.951Z,53.77
2022-11-26T10:55:52.663Z,54.10
2022-11-26T10:58:23.119Z,50.77
2022-11-26T11:00:56.372Z,53.75
2022-11-26T11:03:38.526Z,50.70
2022-11-26T11:06:42.562Z,47.70
2022-11-26T11:09:24.963Z,51.87
2022-11-26T11:12:15.358Z,51.23
2022-11-26T11:14:45.871Z,53.70
2022-11-26T11:17:34.547Z,53.80
2022-11-26T11:20:06.059Z,61.58
2022-11-26T11:22:34.219Z,60.15
2022-11-26T11:25:02.362Z,54.00
2022-11-26T11:27:41.023Z,48.90
2022-11-26T11:30:24.960Z,56.20
2022-11-26T11:32:55.717Z,50.30
2022-11-26T11:35:24.794Z,52.57
2022-11-26T11:37:53.621Z,53.27
2022-11-26T11:40:25.539Z,62.10
2022-11-26T11:42:56.017Z,50.03
2022-11-26T11:45:29.761Z,61.25
2022-11-26T11:47:58.921Z,50.00
2022-11-26T11:50:31.507Z,66.30
2022-11-26T11:53:15.322Z,47.93
2022-11-26T11:55:54.226Z,50.90
2022-11-26T11:58:39.538Z,51.40
2022-11-26T12:01:12.710Z,56.90
2022-11-26T12:03:56.678Z,54.07
2022-11-26T12:06:29.590Z,52.27
2022-11-26T12:09:03.716Z,53.17
2022-11-26T12:11:37.020Z,58.10
2022-11-26T12:14:07.912Z,57.07
2022-11-26T12:16:39.321Z,49.23
2022-11-26T12:19:12.269Z,51.37
2022-11-26T12:21:41.744Z,46.43
2022-11-26T12:24:12.728Z,50.27
2022-11-26T12:26:41.730Z,53.00
2022-11-26T12:29:13.029Z,50.20
2022-11-26T12:31:44.818Z,48.37
2022-11-26T12:34:23.381Z,45.97
2022-11-26T12:36:54.117Z,53.80
2022-11-26T12:39:30.503Z,52.13
2022-11-26T12:42:00.117Z,49.47
2022-11-26T12:44:30.398Z,49.53
2022-11-26T12:47:03.001Z,52.38
2022-11-26T12:49:35.717Z,50.57
2022-11-26T12:52:08.157Z,47.00
2022-11-26T12:54:40.538Z,46.70
2022-11-26T12:57:11.437Z,37.07
2022-11-26T12:59:41.948Z,38.47
2022-11-26T13:02:24.964Z,41.07
2022-11-26T13:04:53.512Z,42.80
2022-11-26T13:07:30.109Z,43.63
2022-11-26T13:10:04.221Z,49.33
2022-11-26T13:12:38.556Z,48.83
2022-11-26T13:15:11.728Z,43.13
2022-11-26T13:17:43.097Z,42.10
2022-11-26T13:20:17.428Z,43.58
2022-11-26T13:22:58.820Z,44.08
2022-11-26T13:26:02.802Z,45.50
2022-11-26T13:28:50.777Z,37.30
2022-11-26T13:31:28.307Z,34.53
2022-11-26T13:34:14.906Z,38.97
2022-11-26T13:37:05.581Z,37.43
2022-11-26T13:40:05.698Z,40.50
2022-11-26T13:42:51.317Z,50.50
2022-11-26T13:45:45.622Z,47.55
2022-11-26T13:48:15.501Z,47.60
2022-11-26T13:50:46.105Z,50.03
2022-11-26T13:53:16.955Z,50.90
2022-11-26T13:55:46.663Z,51.20
2022-11-26T13:58:17.214Z,48.65
2022-11-26T14:00:45.293Z,51.47
2022-11-26T14:03:46.915Z,54.95
2022-11-26T14:06:14.970Z,47.70
2022-11-26T14:08:45.072Z,44.13
2022-11-26T14:11:17.145Z,39.60
2022-11-26T14:13:47.850Z,37.77
2022-11-26T14:16:16.001Z,37.13
2022-11-26T14:19:03.535Z,37.93
2022-11-26T14:21:31.742Z,41.37
2022-11-26T14:24:02.137Z,44.90
2022-11-26T14:26:37.445Z,46.75
2022-11-26T14:29:13.115Z,51.70
2022-11-26T14:31:42.849Z,51.53
2022-11-26T14:34:15.145Z,57.47
2022-11-26T14:36:52.867Z,57.50
2022-11-26T14:39:20.943Z,55.53
2022-11-26T14:41:59.088Z,52.15
2022-11-26T14:44:32.218Z,47.83
2022-11-26T14:47:00.821Z,43.60
2022-11-26T14:49:38.781Z,44.63
2022-11-26T14:52:15.989Z,45.70
2022-11-26T14:54:45.808Z,46.70
2022-11-26T14:57:14.919Z,49.45
2022-11-26T14:59:56.445Z,45.03
2022-11-26T15:02:25.469Z,49.65
2022-11-26T15:05:00.766Z,49.33
2022-11-26T15:07:29.331Z,51.25
2022-11-26T15:10:04.342Z,51.78
2022-11-26T15:12:32.488Z,45.67
2022-11-26T15:15:00.553Z,48.72
2022-11-26T15:17:29.561Z,52.00
2022-11-26T15:19:59.683Z,52.42
2022-11-26T15:22:31.461Z,53.45
2022-11-26T15:24:59.515Z,52.65
2022-11-26T15:27:32.159Z,50.55
2022-11-26T15:30:00.247Z,45.60
2022-11-26T15:32:29.289Z,45.65
2022-11-26T15:35:00.107Z,45.60
2022-11-26T15:37:28.318Z,43.17
2022-11-26T15:40:10.854Z,42.40
2022-11-26T15:42:39.772Z,42.13
2022-11-26T15:45:14.787Z,40.83
2022-11-26T15:47:46.408Z,42.50
2022-11-26T15:50:23.555Z,42.95
2022-11-26T15:52:51.763Z,40.60
2022-11-26T15:55:22.303Z,40.85
2022-11-26T15:57:51.132Z,39.35
2022-11-26T16:00:23.173Z,46.55
2022-11-26T16:02:52.309Z,46.70
2022-11-26T16:05:28.740Z,45.25
2022-11-26T16:07:58.342Z,46.28
2022-11-26T16:10:27.979Z,48.23
2022-11-26T16:13:07.479Z,37.67
2022-11-26T16:15:35.745Z,35.15
2022-11-26T16:18:04.893Z,33.97
2022-11-26T16:20:34.367Z,33.80
2022-11-26T16:23:02.518Z,33.97
2022-11-26T16:25:31.734Z,26.90
2022-11-26T16:28:07.232Z,19.67
2022-11-26T16:30:36.221Z,18.27
2022-11-26T16:33:04.403Z,18.00
2022-11-26T16:35:49.398Z,17.23
2022-11-26T16:38:20.242Z,17.53
2022-11-26T16:40:48.300Z,16.77
2022-11-26T16:43:16.612Z,17.50
2022-11-26T16:45:44.970Z,17.43
2022-11-26T16:48:20.529Z,17.17
2022-11-26T16:50:49.961Z,18.70
2022-11-26T16:53:18.207Z,20.30
2022-11-26T16:55:46.394Z,18.80
2022-11-26T16:58:18.263Z,18.97
2022-11-26T17:00:46.302Z,20.60
2022-11-26T17:03:14.851Z,19.97
2022-11-26T17:05:43.229Z,19.80
2022-11-26T17:08:12.982Z,20.73
2022-11-26T17:10:41.080Z,21.77
2022-11-26T17:13:09.308Z,20.10
2022-11-26T17:15:37.415Z,21.43
2022-11-26T17:18:06.448Z,20.40
2022-11-26T17:20:34.818Z,19.67
2022-11-26T17:23:03.066Z,20.37
2022-11-26T17:25:32.693Z,20.20
2022-11-26T17:28:00.797Z,23.70
2022-11-26T17:30:29.015Z,22.77
2022-11-26T17:32:57.595Z,21.50
2022-11-26T17:35:26.026Z,23.47
2022-11-26T17:37:54.216Z,23.67
2022-11-26T17:40:23.534Z,24.40
2022-11-26T17:42:53.042Z,25.23
2022-11-26T17:45:21.246Z,24.60
2022-11-26T17:47:49.419Z,25.10
2022-11-26T17:50:19.762Z,24.30
2022-11-26T17:52:48.713Z,24.70
2022-11-26T17:55:16.957Z,25.80
2022-11-26T17:57:45.124Z,27.43
2022-11-26T18:00:16.567Z,28.93
2022-11-26T18:02:46.276Z,30.53
2022-11-26T18:05:14.652Z,33.43
2022-11-26T18:07:42.884Z,32.83
2022-11-26T18:10:12.672Z,37.70
2022-11-26T18:12:40.892Z,37.07
2022-11-26T18:15:09.664Z,38.40
2022-11-26T18:17:39.135Z,34.80
2022-11-26T18:20:10.134Z,35.53
2022-11-26T18:22:38.235Z,36.37
2022-11-26T18:25:06.794Z,36.93
2022-11-26T18:27:34.936Z,36.13
2022-11-26T18:30:03.679Z,36.43
2022-11-26T18:32:31.877Z,36.57
2022-11-26T18:35:01.810Z,37.47
2022-11-26T18:37:30.171Z,36.37
2022-11-26T18:39:58.307Z,35.27
2022-11-26T18:42:41.798Z,37.20
2022-11-26T18:45:11.879Z,36.63
2022-11-26T18:47:40.108Z,35.47
2022-11-26T18:50:10.472Z,37.93
2022-11-26T18:52:38.967Z,36.10
2022-11-26T18:55:08.738Z,36.17
2022-11-26T18:57:36.983Z,38.50
2022-11-26T19:00:06.188Z,38.87
2022-11-26T19:02:35.105Z,39.17
2022-11-26T19:05:03.644Z,41.30
2022-11-26T19:07:33.614Z,41.07
2022-11-26T19:10:01.886Z,42.77
2022-11-26T19:12:30.102Z,42.90
2022-11-26T19:14:58.297Z,44.47
2022-11-26T19:17:26.466Z,48.07
2022-11-26T19:19:54.590Z,53.30
2022-11-26T19:22:22.933Z,46.73
2022-11-26T19:24:52.498Z,45.37
2022-11-26T19:27:20.819Z,43.90
2022-11-26T19:29:49.002Z,44.93
2022-11-26T19:32:17.245Z,42.77
2022-11-26T19:34:45.450Z,41.00
2022-11-26T19:37:13.608Z,40.43
2022-11-26T19:39:42.014Z,42.83
2022-11-26T19:42:11.842Z,42.83
2022-11-26T19:44:40.095Z,44.43
2022-11-26T19:47:08.596Z,45.07
2022-11-26T19:49:36.848Z,42.10
2022-11-26T19:52:05.338Z,40.63
2022-11-26T19:54:33.577Z,40.80
2022-11-26T19:57:01.718Z,40.60
2022-11-26T19:59:31.184Z,41.07
2022-11-26T20:01:59.402Z,43.43
2022-11-26T20:04:29.678Z,45.60
2022-11-26T20:06:58.695Z,45.30
2022-11-26T20:09:26.798Z,44.33
2022-11-26T20:11:55.249Z,42.63
2022-11-26T20:14:23.408Z,42.73
2022-11-26T20:16:56.342Z,39.27
2022-11-26T20:19:28.767Z,36.63
2022-11-26T20:21:56.909Z,38.67
2022-11-26T20:24:25.055Z,39.37
2022-11-26T20:26:53.439Z,39.70
2022-11-26T20:29:22.097Z,38.77
2022-11-26T20:31:52.417Z,40.70
2022-11-26T20:34:21.692Z,39.43
2022-11-26T20:36:49.993Z,41.77
2022-11-26T20:39:19.393Z,44.17
2022-11-26T20:41:47.794Z,40.83
2022-11-26T20:44:15.939Z,41.43
2022-11-26T20:46:44.379Z,39.47
2022-11-26T20:49:15.977Z,41.90
2022-11-26T20:51:44.433Z,40.57
2022-11-26T20:54:12.720Z,40.50
2022-11-26T20:56:40.826Z,38.20
2022-11-26T20:59:09.669Z,39.10
2022-11-26T21:01:40.113Z,35.67
2022-11-26T21:04:08.388Z,30.60
2022-11-26T21:06:38.654Z,30.17
2022-11-26T21:09:07.420Z,29.47
2022-11-26T21:11:35.684Z,29.87
2022-11-26T21:14:04.035Z,28.10
2022-11-26T21:16:32.303Z,27.33
2022-11-26T21:19:00.937Z,27.33
2022-11-26T21:21:29.476Z,25.97
2022-11-26T21:23:59.197Z,25.30
2022-11-26T21:26:27.675Z,27.33
2022-11-26T21:28:56.482Z,27.57
2022-11-26T21:31:24.730Z,25.83
2022-11-26T21:33:55.767Z,26.63
2022-11-26T21:36:23.929Z,26.23
2022-11-26T21:38:52.155Z,24.97
2022-11-26T21:41:21.661Z,26.40
2022-11-26T21:43:49.800Z,26.13
2022-11-26T21:46:19.203Z,27.10
2022-11-26T21:48:47.307Z,27.87
2022-11-26T21:51:16.682Z,27.07
2022-11-26T21:53:44.896Z,28.90
2022-11-26T21:56:15.137Z,28.53
2022-11-26T21:58:44.696Z,26.70
2022-11-26T22:01:13.363Z,27.97
2022-11-26T22:03:42.324Z,27.70
2022-11-26T22:06:10.493Z,29.20
2022-11-26T22:08:38.744Z,30.23
2022-11-26T22:11:10.531Z,30.73
2022-11-26T22:13:38.653Z,28.47
2022-11-26T22:16:08.793Z,26.03
2022-11-26T22:18:37.879Z,27.90
2022-11-26T22:21:06.378Z,26.63
2022-11-26T22:23:34.644Z,27.23
2022-11-26T22:26:02.689Z,26.13
2022-11-26T22:28:30.928Z,27.30
2022-11-26T22:30:59.061Z,23.47
2022-11-26T22:33:28.664Z,23.33
2022-11-26T22:35:57.087Z,24.47
2022-11-26T22:38:25.328Z,24.30
2022-11-26T22:40:53.455Z,24.37
2022-11-26T22:43:21.606Z,25.33
2022-11-26T22:45:49.733Z,26.47
2022-11-26T22:48:17.809Z,26.07
2022-11-26T22:50:52.731Z,26.63
2022-11-26T22:53:20.928Z,24.50
2022-11-26T22:55:52.334Z,26.53
2022-11-26T22:58:20.585Z,25.37
2022-11-26T23:00:50.280Z,21.70
2022-11-26T23:03:18.721Z,20.53
2022-11-26T23:05:47.016Z,20.57
2022-11-26T23:08:16.589Z,20.47
2022-11-26T23:10:44.767Z,21.20
2022-11-26T23:13:13.626Z,21.53
2022-11-26T23:15:44.673Z,20.80
2022-11-26T23:18:13.518Z,20.63
2022-11-26T23:20:41.691Z,22.63
2022-11-26T23:23:09.906Z,23.47
2022-11-26T23:25:40.547Z,24.93
2022-11-26T23:28:08.701Z,26.60
2022-11-26T23:30:36.820Z,27.40
2022-11-26T23:33:04.997Z,27.60
2022-11-26T23:35:33.052Z,26.07
2022-11-26T23:38:01.202Z,26.93
2022-11-26T23:40:29.244Z,26.80
2022-11-26T23:42:58.734Z,27.23
2022-11-26T23:45:26.806Z,30.23
2022-11-26T23:47:54.913Z,27.33
2022-11-26T23:50:22.981Z,30.17
2022-11-26T23:52:51.133Z,28.13
2022-11-26T23:55:19.233Z,28.57
2022-11-26T23:57:47.385Z,27.97
